• Join FlightAware (Why Join?)
  • Login
  • US Flag 
05:55AM EST


 

Airport Tracker/Info


-or-


 

Live Flight TrackerFlight Track Log ✈ SWA2383 ✈ 27-Apr-2013 ✈ KBWI - KMCI

Flight Track Log - Related Links

Times and Time Zones

All times are in EDT time to prevent confusion due to time zone crossing. See the SWA2383 flight status page for this flight to view local times or setup timezone preferences in your user account.

Time Position Orientation Groundspeed Altitude Reporting Facility
EDT Latitude Longitude Course Direction KTS MPH feet Rate Location/Type
08:18AM 39.1833 -76.7500 270° West 186 214 2,700  Level Potomac TRACON
08:19AM 39.1833 -76.8167 270° West 226 260 4,500 3,060 Climbing Potomac TRACON
08:20AM 39.2000 -76.9000 284° West 264 304 8,300 3,360 Climbing Potomac TRACON
08:21AM 39.2167 -76.9833 284° West 287 330 10,900 2,640 Climbing Potomac TRACON
08:23AM 39.1675 -77.1978 254° West 337 388 15,700 2,460 Climbing Washington Center
08:24AM 39.0767 -77.2733 213° Southwest 340 391 18,100 2,580 Climbing Washington Center
08:25AM 38.9961 -77.3678 222° Southwest 375 432 21,000 2,820 Climbing Washington Center
08:26AM 38.9711 -77.5033 257° West 375 432 23,800 2,520 Climbing Washington Center
08:27AM 38.9478 -77.6603 259° West 395 455 26,200 1,980 Climbing Washington Center
08:28AM 38.9247 -77.7875 257° West 411 473 27,800 2,280 Climbing Washington Center
08:29AM 38.8986 -77.9522 259° West 421 484 30,700 3,000 Climbing Washington Center
08:30AM 38.8753 -78.0794 257° West 405 466 33,900 2,280 Climbing Washington Center
08:31AM 38.8558 -78.2094 259° West 387 445 35,400 1,320 Climbing Washington Center
08:32AM 38.8531 -78.3347 268° West 369 425 36,600 780 Climbing Washington Center
08:33AM 38.8519 -78.4625 269° West 364 419 37,000 180 Climbing Washington Center
08:34AM 38.8508 -78.5931 269° West 364 419 37,000  Level Washington Center
08:35AM 38.8478 -78.7208 268° West 364 419 37,000  Level Washington Center
08:36AM 38.8483 -78.8517 270° West 364 419 37,000  Level Washington Center
08:37AM 38.8469 -78.9794 269° West 364 419 37,000  Level Washington Center
08:38AM 38.8433 -79.1100 268° West 364 419 37,000  Level Washington Center
08:39AM 38.8414 -79.2403 269° West 364 419 37,000  Level Washington Center
08:40AM 38.8375 -79.3628 268° West 364 419 37,000  Level Washington Center
08:41AM 38.8356 -79.4906 269° West 364 419 37,000  Level Washington Center
08:42AM 38.8333 -79.6239 269° West 372 428 37,000  Level Washington Center
08:43AM 38.8333 -79.7492 270° West 372 428 37,000  Level Washington Center
08:44AM 38.8292 -79.8633 267° West 365 420 37,000 300 Level Washington Center
08:46AM 38.8194 -80.1561 268° West 357 411 38,000 300 Climbing Indianapolis Center
08:47AM 38.8150 -80.2861 268° West 364 419 38,000  Level Indianapolis Center
08:48AM 38.8114 -80.4161 268° West 364 419 38,000  Level Indianapolis Center
08:49AM 38.8081 -80.5456 268° West 365 420 38,000  Level Indianapolis Center
08:50AM 38.8036 -80.6742 268° West 363 418 38,000  Level Indianapolis Center
08:51AM 38.8000 -80.8033 268° West 364 419 38,000  Level Indianapolis Center
08:52AM 38.7956 -80.9347 268° West 365 420 38,000  Level Indianapolis Center
08:53AM 38.7911 -81.0619 267° West 363 418 38,000  Level Indianapolis Center
08:54AM 38.7869 -81.1900 268° West 360 414 38,000  Level Indianapolis Center
08:55AM 38.7828 -81.3194 268° West 363 418 38,000  Level Indianapolis Center
08:56AM 38.7764 -81.4689 267° West 360 414 38,000  Level Indianapolis Center
08:57AM 38.7725 -81.5986 268° West 363 418 38,000  Level Indianapolis Center
08:58AM 38.7672 -81.7225 267° West 363 418 38,000  Level Indianapolis Center
08:59AM 38.7622 -81.8525 267° West 365 420 38,000  Level Indianapolis Center
09:00AM 38.7567 -81.9833 267° West 368 423 38,000  Level Indianapolis Center
09:01AM 38.7519 -82.1142 267° West 369 425 38,000  Level Indianapolis Center
09:02AM 38.7464 -82.2456 267° West 369 425 38,000  Level Indianapolis Center
09:03AM 38.7414 -82.3786 267° West 372 428 38,000  Level Indianapolis Center
09:04AM 38.7364 -82.5103 267° West 371 427 38,000  Level Indianapolis Center
09:05AM 38.7303 -82.6419 267° West 372 428 38,000  Level Indianapolis Center
09:06AM 38.7419 -82.7972 276° West 366 421 38,000  Level Indianapolis Center
09:07AM 38.7586 -82.9256 279° West 365 420 38,000  Level Indianapolis Center
09:08AM 38.7758 -83.0528 280° West 363 418 38,000  Level Indianapolis Center
09:09AM 38.7936 -83.1814 280° West 363 418 38,000  Level Indianapolis Center
09:10AM 38.8111 -83.3167 279° West 362 417 38,000  Level Indianapolis Center
09:11AM 38.8281 -83.4442 280° West 360 414 38,000  Level Indianapolis Center
09:12AM 38.8447 -83.5697 280° West 355 409 38,000  Level Indianapolis Center
09:14AM 38.8608 -83.6944 279° West 352 405 38,100 360 Climbing Indianapolis Center
09:15AM 38.8758 -83.8186 279° West 349 402 38,800 420 Climbing Indianapolis Center
09:16AM 38.8933 -83.9492 280° West 363 418 39,000 60 Climbing Indianapolis Center
09:17AM 38.9092 -84.0781 279° West 364 419 39,000  Level Indianapolis Center
09:18AM 38.9267 -84.2081 280° West 364 419 39,000  Level Indianapolis Center
09:19AM 38.9411 -84.3367 278° West 362 417 39,000  Level Indianapolis Center
09:20AM 38.9583 -84.4694 280° West 368 423 39,000  Level Indianapolis Center
09:21AM 38.9739 -84.6003 279° West 367 422 39,000  Level Indianapolis Center
09:22AM 38.9897 -84.7317 279° West 368 423 39,000  Level Indianapolis Center
09:23AM 39.0056 -84.8606 279° West 364 419 39,000  Level Indianapolis Center
09:24AM 39.0206 -84.9897 279° West 361 415 39,000  Level Indianapolis Center
09:25AM 39.0358 -85.1181 279° West 361 415 39,000  Level Indianapolis Center
09:26AM 39.0506 -85.2444 279° West 357 411 39,000  Level Indianapolis Center
09:27AM 39.0647 -85.3717 278° West 357 411 39,000 300 Level Indianapolis Center
09:28AM 39.0803 -85.5017 279° West 363 418 39,700 480 Climbing Indianapolis Center
09:29AM 39.0967 -85.6583 278° West 377 434 40,000 120 Climbing Indianapolis Center
09:30AM 39.1117 -85.7936 278° West 379 436 40,000  Level Indianapolis Center
09:31AM 39.1269 -85.9283 278° West 379 436 40,000  Level Indianapolis Center
09:32AM 39.1419 -86.0644 278° West 380 437 40,000  Level Indianapolis Center
09:33AM 39.1561 -86.2003 278° West 380 437 40,000  Level Indianapolis Center
09:34AM 39.1703 -86.3369 278° West 381 438 40,000  Level Indianapolis Center
09:35AM 39.1858 -86.4750 278° West 384 442 40,000  Level Indianapolis Center
09:36AM 39.2000 -86.6150 277° West 389 448 40,000  Level Indianapolis Center
09:37AM 39.2136 -86.7533 277° West 387 445 40,000  Level Indianapolis Center
09:38AM 39.2281 -86.8939 278° West 389 448 40,000  Level Indianapolis Center
09:39AM 39.2422 -87.0333 278° West 389 448 40,000  Level Indianapolis Center
09:40AM 39.2558 -87.1717 277° West 388 447 40,000  Level Indianapolis Center
09:41AM 39.2694 -87.3122 277° West 391 450 40,000  Level Indianapolis Center
09:42AM 39.2850 -87.4756 277° West 392 451 40,000  Level Indianapolis Center
09:43AM 39.2986 -87.6172 277° West 393 452 40,000  Level Indianapolis Center
09:44AM 39.3094 -87.7358 277° West 392 451 40,000  Level Indianapolis Center
09:45AM 39.3253 -87.9050 277° West 396 456 40,000  Level Indianapolis Center
09:46AM 39.3328 -87.9903 277° West 394 453 40,000  Level Kansas City Center
09:47AM 39.3450 -88.1308 276° West 394 453 40,000  Level Kansas City Center
09:48AM 39.3572 -88.2719 276° West 394 453 40,000  Level Kansas City Center
09:49AM 39.3711 -88.4158 277° West 400 460 40,000  Level Kansas City Center
09:50AM 39.3839 -88.5600 277° West 404 465 40,000  Level Kansas City Center
09:51AM 39.3933 -88.6928 275° West 404 465 40,000  Level Kansas City Center
09:52AM 39.4072 -88.8397 277° West 409 471 40,000  Level Kansas City Center
09:53AM 39.4192 -88.9928 276° West 409 471 40,000  Level Kansas City Center
09:54AM 39.4322 -89.1397 277° West 410 472 40,000  Level Kansas City Center
09:55AM 39.4453 -89.3036 276° West 407 468 40,000  Level Kansas City Center
09:56AM 39.4569 -89.4469 276° West 404 465 40,000  Level Kansas City Center
09:57AM 39.4672 -89.5908 275° West 405 466 40,000  Level Kansas City Center
09:58AM 39.4778 -89.7319 276° West 399 459 40,000  Level Kansas City Center
09:59AM 39.4894 -89.8747 276° West 400 460 40,000  Level Kansas City Center
10:00AM 39.5000 -90.0186 275° West 404 465 40,000  Level Kansas City Center
10:01AM 39.5114 -90.1622 276° West 404 465 40,000  Level Kansas City Center
10:02AM 39.5228 -90.3344 275° West 402 463 40,000  Level Kansas City Center
10:03AM 39.5328 -90.4775 275° West 402 463 40,000  Level Kansas City Center
10:04AM 39.5422 -90.6192 275° West 400 460 40,000  Level Kansas City Center
10:05AM 39.5519 -90.7650 275° West 404 465 40,000 -60 Level Kansas City Center
10:06AM 39.5611 -90.9086 275° West 404 465 39,900 -540 Descending Kansas City Center
10:07AM 39.5711 -91.0511 275° West 402 463 38,900 -960 Descending Kansas City Center
10:08AM 39.5797 -91.1917 275° West 396 456 38,000 -480 Descending Kansas City Center
10:09AM 39.5906 -91.3506 275° West 394 453 38,000  Level Kansas City Center
10:10AM 39.5992 -91.4931 275° West 397 457 38,000  Level Kansas City Center
10:11AM 39.6075 -91.6342 274° West 397 457 38,000  Level Kansas City Center
10:12AM 39.6150 -91.7794 274° West 401 461 38,000  Level Kansas City Center
10:13AM 39.6169 -91.9231 271° West 400 460 38,000  Level Kansas City Center
10:14AM 39.6192 -92.0667 271° West 401 461 38,000  Level Kansas City Center
10:15AM 39.6211 -92.2119 271° West 402 463 38,000  Level Kansas City Center
10:16AM 39.6228 -92.3853 271° West 402 463 38,000 -360 Level Kansas City Center
10:17AM 39.6247 -92.5303 271° West 403 464 37,300 -1,620 Descending Kansas City Center
10:18AM 39.6261 -92.6825 271° West 409 471 34,800 -2,280 Descending Kansas City Center
10:20AM 39.6269 -92.8308 270° West 413 475 32,700 -2,040 Descending Kansas City Center
10:21AM 39.6286 -92.9731 271° West 408 470 30,700 -1,920 Descending Kansas City Center
10:22AM 39.6283 -93.1067 270° West 389 448 28,800 -1,980 Descending Kansas City Center
10:23AM 39.6292 -93.2511 270° West 395 455 26,700 -2,040 Descending Kansas City Center
10:24AM 39.6300 -93.3967 270° West 404 465 24,700 -1,920 Descending Kansas City Center
10:25AM 39.6303 -93.5358 270° West 397 457 22,800 -2,040 Descending Kansas City Center
10:26AM 39.6306 -93.6986 270° West 378 435 20,600 -1,980 Descending Kansas City Center
10:27AM 39.6300 -93.8261 270° West 367 422 18,800 -1,560 Descending Kansas City Center
10:28AM 39.5978 -93.9389 250° West 355 409 17,500 -1,800 Descending Kansas City Center
10:29AM 39.5392 -94.0572 237° Southwest 348 400 15,200 -1,980 Descending Kansas City Center
10:30AM 39.4886 -94.1575 237° Southwest 348 400 13,500 -1,620 Descending Kansas City Center
10:31AM 39.4297 -94.2719 236° Southwest 342 394 12,000 -840 Descending Kansas City Center
10:32AM 39.3844 -94.3614 237° Southwest 315 362 11,900 -780 Descending Kansas City Center
10:33AM 39.3403 -94.4492 237° Southwest 304 350 10,500 -1,680 Descending Kansas City Center
10:34AM 39.2886 -94.5483 236° Southwest 298 343 8,500 -1,920 Descending Kansas City Center
10:35AM 39.2361 -94.6183 226° Southwest 288 331 6,600 -1,620 Descending Kansas City Center
10:36AM 39.1639 -94.6444 196° South 281 323 5,300 -960 Descending Kansas City Center
10:37AM 39.1025 -94.6903 210° Southwest 239 275 4,700 -840 Descending Kansas City Center
10:38AM 39.1175 -94.7592 286° West 232 267 3,700 -840 Descending Kansas City Center
10:39AM 39.1725 -94.7417 14° North 182 209 3,000 -660 Descending Kansas City Center
10:40AM 39.2153 -94.7289 13° North 170 196 2,400 -660 Descending Kansas City Center
10:41AM 39.2500 -94.7186 13° North 137 158 1,700 -720 Descending Kansas City Center
10:42AM 39.2842 -94.7092 12° North 132 152 1,000 -720 Descending Kansas City Center